Detroit, Illinois
Current Conditions -  °F | °C
As of 8:15 AM on Sunday 23 Nov 2014 (Local Time) from KPPQ Reporting Station
Clear Clear  
Wind Chill: 54°   Ceiling: Unl
Heat Index: 54°   Visibility: 10mi
Dew Point: 48°   Wind: 13mph
Humidity: 81%   Direction: 150°SSE
Pressure: 29.66"   Gusts: NA
Location:  39.5728°N, 90.8034°W
Report Text: KPPQ 231415Z AUTO 15011KT 10SM CLR 12/09 A2966 RMK AO2 T01200089 PWINO
Loading
Personal Weather Stations






























Interactive Weather Map New forecast layout! Learn more

10-Day Weather Forecast

Advertisements
Track Severe Weather on mobile